EZY38PZ EKCH-EGPH
Flight info
| Callsign | EZY38PZ |
|---|---|
| Flight time | 1h 31m |
| Altitude | 38000 |
| Route | ODDON P60 BAMPI DCT NAVIK DCT BUSOM DCT PETIL DCT SURAT DCT AGPED |
| Aircraft | A320/M-SDE3FGHIRWY/LB1 |
Departure
| Time | 2026-05-06 15:04 |
|---|---|
| Airport | Copenhagen Kastrup Airport (EKCH) |
Arrival
| Time | 2026-05-06 16:35 |
|---|---|
| Airport | Edinburgh Airport (EGPH) |
| Time | Latitude | Longitude | Altitude | Speed | Heading |
|---|---|---|---|---|---|
| 2026-05-06 14:37 | 55.62515 | 12.65568 | 18 ft | 0 kts | 19° |
| 2026-05-06 14:55 | 55.62512 | 12.65566 | 17 ft | 2 kts | 18° |
| 2026-05-06 14:55 | 55.62496 | 12.65559 | 18 ft | 2 kts | 13° |
| 2026-05-06 14:55 | 55.62480 | 12.65555 | 18 ft | 2 kts | 356° |
| 2026-05-06 14:56 | 55.62463 | 12.65559 | 19 ft | 2 kts | 333° |
| 2026-05-06 14:56 | 55.62450 | 12.65576 | 19 ft | 2 kts | 299° |
| 2026-05-06 14:56 | 55.62445 | 12.65600 | 22 ft | 1 kts | 269° |
| 2026-05-06 14:56 | 55.62444 | 12.65605 | 19 ft | 0 kts | 263° |
| 2026-05-06 14:58 | 55.62444 | 12.65603 | 19 ft | 1 kts | 263° |
| 2026-05-06 14:58 | 55.62443 | 12.65539 | 20 ft | 9 kts | 269° |
| 2026-05-06 14:58 | 55.62440 | 12.65386 | 18 ft | 16 kts | 267° |
| 2026-05-06 14:58 | 55.62406 | 12.65196 | 21 ft | 17 kts | 193° |
| 2026-05-06 14:59 | 55.62285 | 12.65198 | 22 ft | 18 kts | 179° |
| 2026-05-06 14:59 | 55.62170 | 12.65137 | 24 ft | 17 kts | 213° |
| 2026-05-06 14:59 | 55.62127 | 12.65087 | 26 ft | 0 kts | 213° |
| 2026-05-06 15:00 | 55.62120 | 12.65078 | 24 ft | 4 kts | 214° |
| 2026-05-06 15:00 | 55.62070 | 12.65019 | 23 ft | 13 kts | 213° |
| 2026-05-06 15:00 | 55.61978 | 12.64913 | 19 ft | 19 kts | 214° |
| 2026-05-06 15:01 | 55.61849 | 12.64768 | 20 ft | 24 kts | 213° |
| 2026-05-06 15:01 | 55.61704 | 12.64600 | 21 ft | 27 kts | 212° |
| 2026-05-06 15:01 | 55.61541 | 12.64412 | 23 ft | 30 kts | 213° |
| 2026-05-06 15:01 | 55.61356 | 12.64201 | 21 ft | 34 kts | 213° |
| 2026-05-06 15:02 | 55.61156 | 12.63967 | 19 ft | 34 kts | 213° |
| 2026-05-06 15:02 | 55.60960 | 12.63742 | 24 ft | 33 kts | 213° |
| 2026-05-06 15:02 | 55.60789 | 12.63609 | 21 ft | 24 kts | 162° |
| 2026-05-06 15:02 | 55.60684 | 12.63813 | 25 ft | 19 kts | 120° |
| 2026-05-06 15:03 | 55.60747 | 12.63989 | 24 ft | 25 kts | 45° |
| 2026-05-06 15:03 | 55.61071 | 12.64486 | 19 ft | 96 kts | 40° |
| 2026-05-06 15:03 | 55.61721 | 12.65495 | 20 ft | 150 kts | 40° |
| 2026-05-06 15:03 | 55.62571 | 12.66799 | 449 ft | 161 kts | 44° |
| 2026-05-06 15:04 | 55.63420 | 12.68104 | 1252 ft | 162 kts | 45° |
| 2026-05-06 15:04 | 55.64304 | 12.69488 | 1710 ft | 180 kts | 46° |
| 2026-05-06 15:04 | 55.65353 | 12.70943 | 1962 ft | 207 kts | 28° |
| 2026-05-06 15:04 | 55.66874 | 12.71176 | 2312 ft | 239 kts | 351° |
| 2026-05-06 15:05 | 55.68584 | 12.70576 | 2779 ft | 260 kts | 353° |
| 2026-05-06 15:05 | 55.70395 | 12.70104 | 3593 ft | 266 kts | 354° |
| 2026-05-06 15:05 | 55.72153 | 12.69021 | 4527 ft | 272 kts | 329° |
| 2026-05-06 15:05 | 55.73498 | 12.66656 | 5475 ft | 277 kts | 303° |
| 2026-05-06 15:06 | 55.74119 | 12.63426 | 6394 ft | 282 kts | 275° |
| 2026-05-06 15:06 | 55.73978 | 12.59945 | 7263 ft | 284 kts | 263° |
| 2026-05-06 15:06 | 55.73716 | 12.56522 | 8185 ft | 284 kts | 263° |
| 2026-05-06 15:06 | 55.73450 | 12.53049 | 9114 ft | 284 kts | 262° |
| 2026-05-06 15:07 | 55.73187 | 12.49570 | 10018 ft | 285 kts | 263° |
| 2026-05-06 15:07 | 55.72922 | 12.46017 | 10514 ft | 301 kts | 263° |
| 2026-05-06 15:07 | 55.72639 | 12.42201 | 10761 ft | 323 kts | 263° |
| 2026-05-06 15:07 | 55.72339 | 12.38181 | 11325 ft | 332 kts | 263° |
| 2026-05-06 15:08 | 55.72034 | 12.34113 | 12059 ft | 334 kts | 263° |
| 2026-05-06 15:08 | 55.71723 | 12.30007 | 12827 ft | 337 kts | 262° |
| 2026-05-06 15:08 | 55.71407 | 12.25865 | 13560 ft | 340 kts | 262° |
| 2026-05-06 15:08 | 55.71087 | 12.21691 | 14210 ft | 343 kts | 262° |
| 2026-05-06 15:09 | 55.70763 | 12.17474 | 14850 ft | 347 kts | 262° |
| 2026-05-06 15:09 | 55.70435 | 12.13220 | 15488 ft | 350 kts | 262° |
| 2026-05-06 15:09 | 55.70103 | 12.08928 | 16101 ft | 353 kts | 262° |
| 2026-05-06 15:09 | 55.69768 | 12.04593 | 16721 ft | 356 kts | 262° |
| 2026-05-06 15:10 | 55.69428 | 12.00220 | 17332 ft | 359 kts | 262° |
| 2026-05-06 15:10 | 55.69080 | 11.95815 | 17963 ft | 362 kts | 261° |
| 2026-05-06 15:10 | 55.68727 | 11.91378 | 18504 ft | 365 kts | 261° |
| 2026-05-06 15:10 | 55.68372 | 11.86911 | 19036 ft | 367 kts | 261° |
| 2026-05-06 15:11 | 55.68017 | 11.82413 | 19553 ft | 369 kts | 261° |
| 2026-05-06 15:11 | 55.67660 | 11.77895 | 20102 ft | 371 kts | 261° |
| 2026-05-06 15:11 | 55.67300 | 11.73353 | 20628 ft | 373 kts | 261° |
| 2026-05-06 15:11 | 55.66934 | 11.68792 | 21146 ft | 375 kts | 261° |
| 2026-05-06 15:12 | 55.66562 | 11.64198 | 21662 ft | 377 kts | 261° |
| 2026-05-06 15:12 | 55.66187 | 11.59588 | 22181 ft | 379 kts | 261° |
| 2026-05-06 15:12 | 55.65807 | 11.54952 | 22662 ft | 381 kts | 260° |
| 2026-05-06 15:12 | 55.65423 | 11.50296 | 23157 ft | 383 kts | 260° |
| 2026-05-06 15:13 | 55.65033 | 11.45616 | 23612 ft | 385 kts | 260° |
| 2026-05-06 15:13 | 55.64641 | 11.40915 | 24010 ft | 387 kts | 260° |
| 2026-05-06 15:13 | 55.64245 | 11.36191 | 24389 ft | 389 kts | 260° |
| 2026-05-06 15:13 | 55.63850 | 11.31501 | 24762 ft | 391 kts | 260° |
| 2026-05-06 15:14 | 55.63442 | 11.26658 | 25133 ft | 394 kts | 259° |
| 2026-05-06 15:14 | 55.63035 | 11.21856 | 25509 ft | 396 kts | 259° |
| 2026-05-06 15:14 | 55.62623 | 11.17031 | 25868 ft | 398 kts | 259° |
| 2026-05-06 15:14 | 55.62210 | 11.12183 | 26226 ft | 400 kts | 259° |
| 2026-05-06 15:15 | 55.61793 | 11.07306 | 26586 ft | 402 kts | 259° |
| 2026-05-06 15:15 | 55.61370 | 11.02405 | 26946 ft | 404 kts | 259° |
| 2026-05-06 15:15 | 55.60951 | 10.97547 | 27277 ft | 406 kts | 259° |
| 2026-05-06 15:15 | 55.60521 | 10.92594 | 27618 ft | 408 kts | 259° |
| 2026-05-06 15:16 | 55.60087 | 10.87622 | 27967 ft | 410 kts | 258° |
| 2026-05-06 15:16 | 55.59647 | 10.82629 | 28307 ft | 412 kts | 258° |
| 2026-05-06 15:16 | 55.59200 | 10.77611 | 28625 ft | 414 kts | 258° |
| 2026-05-06 15:16 | 55.58748 | 10.72567 | 28940 ft | 416 kts | 258° |
| 2026-05-06 15:17 | 55.58377 | 10.67473 | 29232 ft | 421 kts | 264° |
| 2026-05-06 15:17 | 55.58465 | 10.62279 | 29520 ft | 427 kts | 273° |
| 2026-05-06 15:17 | 55.58982 | 10.57080 | 29805 ft | 431 kts | 277° |
| 2026-05-06 15:17 | 55.59545 | 10.51866 | 30078 ft | 433 kts | 277° |
| 2026-05-06 15:18 | 55.60107 | 10.46623 | 30325 ft | 434 kts | 277° |
| 2026-05-06 15:18 | 55.60663 | 10.41368 | 30591 ft | 435 kts | 276° |
| 2026-05-06 15:18 | 55.61215 | 10.36110 | 30919 ft | 434 kts | 276° |
| 2026-05-06 15:18 | 55.61764 | 10.30873 | 31306 ft | 432 kts | 276° |
| 2026-05-06 15:19 | 55.62311 | 10.25645 | 31690 ft | 431 kts | 276° |
| 2026-05-06 15:19 | 55.62855 | 10.20444 | 32054 ft | 429 kts | 276° |
| 2026-05-06 15:19 | 55.63394 | 10.15261 | 32428 ft | 427 kts | 276° |
| 2026-05-06 15:19 | 55.63925 | 10.10104 | 32792 ft | 426 kts | 276° |
| 2026-05-06 15:20 | 55.64451 | 10.04952 | 33161 ft | 424 kts | 276° |
| 2026-05-06 15:20 | 55.64973 | 9.99825 | 33520 ft | 423 kts | 276° |
| 2026-05-06 15:20 | 55.65491 | 9.94714 | 33881 ft | 421 kts | 276° |
| 2026-05-06 15:20 | 55.66010 | 9.89618 | 34176 ft | 420 kts | 277° |
| 2026-05-06 15:21 | 55.66571 | 9.84541 | 34441 ft | 420 kts | 277° |
| 2026-05-06 15:21 | 55.67173 | 9.79468 | 34685 ft | 421 kts | 278° |
| 2026-05-06 15:21 | 55.67591 | 9.76049 | 34842 ft | 421 kts | 278° |
| 2026-05-06 15:21 | 55.68422 | 9.69331 | 35151 ft | 421 kts | 278° |
| 2026-05-06 15:22 | 55.68834 | 9.65965 | 35302 ft | 421 kts | 278° |
| 2026-05-06 15:22 | 55.69454 | 9.60826 | 35523 ft | 421 kts | 278° |
| 2026-05-06 15:22 | 55.70056 | 9.55741 | 35746 ft | 421 kts | 278° |
| 2026-05-06 15:22 | 55.70647 | 9.50656 | 35959 ft | 421 kts | 278° |
| 2026-05-06 15:23 | 55.71231 | 9.45564 | 36160 ft | 422 kts | 278° |
| 2026-05-06 15:23 | 55.71804 | 9.40533 | 36387 ft | 422 kts | 278° |
| 2026-05-06 15:23 | 55.72383 | 9.35432 | 36569 ft | 422 kts | 278° |
| 2026-05-06 15:23 | 55.72965 | 9.30328 | 36774 ft | 422 kts | 278° |
| 2026-05-06 15:24 | 55.73546 | 9.25220 | 36962 ft | 422 kts | 278° |
| 2026-05-06 15:24 | 55.74126 | 9.20095 | 37156 ft | 422 kts | 278° |
| 2026-05-06 15:24 | 55.74703 | 9.14980 | 37341 ft | 422 kts | 278° |
| 2026-05-06 15:24 | 55.75278 | 9.09868 | 37529 ft | 423 kts | 278° |
| 2026-05-06 15:25 | 55.75852 | 9.04741 | 37686 ft | 423 kts | 278° |
| 2026-05-06 15:25 | 55.76427 | 8.99608 | 37855 ft | 423 kts | 278° |
| 2026-05-06 15:25 | 55.77003 | 8.94472 | 37941 ft | 426 kts | 278° |
| 2026-05-06 15:26 | 55.78153 | 8.84053 | 37948 ft | 433 kts | 278° |
| 2026-05-06 15:26 | 55.79308 | 8.73457 | 37944 ft | 440 kts | 278° |
| 2026-05-06 15:27 | 55.80471 | 8.62752 | 37947 ft | 441 kts | 278° |
| 2026-05-06 15:27 | 55.81584 | 8.52453 | 37948 ft | 442 kts | 277° |
| 2026-05-06 15:28 | 55.82727 | 8.41764 | 37951 ft | 443 kts | 277° |
| 2026-05-06 15:28 | 55.83866 | 8.30919 | 37959 ft | 443 kts | 277° |
| 2026-05-06 15:29 | 55.84883 | 8.20112 | 37965 ft | 442 kts | 275° |
| 2026-05-06 15:29 | 55.85593 | 8.09253 | 37980 ft | 442 kts | 273° |
| 2026-05-06 15:30 | 55.86225 | 7.98439 | 37987 ft | 442 kts | 273° |
| 2026-05-06 15:30 | 55.86764 | 7.87543 | 37991 ft | 442 kts | 271° |
| 2026-05-06 15:31 | 55.87168 | 7.76630 | 37994 ft | 442 kts | 271° |
| 2026-05-06 15:31 | 55.87552 | 7.65709 | 38001 ft | 442 kts | 271° |
| 2026-05-06 15:32 | 55.88176 | 7.49320 | 38003 ft | 442 kts | 271° |
| 2026-05-06 15:32 | 55.88593 | 7.38393 | 38014 ft | 442 kts | 271° |
| 2026-05-06 15:33 | 55.88982 | 7.27457 | 38011 ft | 442 kts | 271° |
| 2026-05-06 15:33 | 55.89357 | 7.16543 | 38015 ft | 441 kts | 271° |
| 2026-05-06 15:34 | 55.89722 | 7.05626 | 38013 ft | 441 kts | 271° |
| 2026-05-06 15:34 | 55.90092 | 6.94716 | 38016 ft | 441 kts | 271° |
| 2026-05-06 15:35 | 55.90447 | 6.83796 | 38029 ft | 441 kts | 271° |
| 2026-05-06 15:35 | 55.90789 | 6.72880 | 38025 ft | 441 kts | 271° |
| 2026-05-06 15:36 | 55.91123 | 6.61963 | 38024 ft | 441 kts | 271° |
| 2026-05-06 15:36 | 55.91448 | 6.51025 | 38028 ft | 441 kts | 271° |
| 2026-05-06 15:37 | 55.91764 | 6.40099 | 38032 ft | 441 kts | 270° |
| 2026-05-06 15:37 | 55.92066 | 6.29167 | 38032 ft | 442 kts | 270° |
| 2026-05-06 15:38 | 55.92362 | 6.18229 | 38036 ft | 441 kts | 270° |
| 2026-05-06 15:38 | 55.92650 | 6.07299 | 38037 ft | 441 kts | 270° |
| 2026-05-06 15:39 | 55.92925 | 5.96428 | 38040 ft | 441 kts | 270° |
| 2026-05-06 15:39 | 55.93190 | 5.85485 | 38046 ft | 442 kts | 270° |
| 2026-05-06 15:40 | 55.93452 | 5.74551 | 38049 ft | 441 kts | 270° |
| 2026-05-06 15:40 | 55.93694 | 5.63619 | 38049 ft | 441 kts | 270° |
| 2026-05-06 15:41 | 55.93926 | 5.52702 | 38050 ft | 441 kts | 270° |
| 2026-05-06 15:41 | 55.94154 | 5.41780 | 38053 ft | 440 kts | 270° |
| 2026-05-06 15:42 | 55.94250 | 5.30877 | 38052 ft | 439 kts | 268° |
| 2026-05-06 15:42 | 55.94125 | 5.19985 | 38049 ft | 439 kts | 267° |
| 2026-05-06 15:43 | 55.93969 | 5.09103 | 38054 ft | 439 kts | 267° |
| 2026-05-06 15:43 | 55.93853 | 4.98217 | 38054 ft | 439 kts | 268° |
| 2026-05-06 15:44 | 55.93756 | 4.87328 | 38058 ft | 439 kts | 267° |
| 2026-05-06 15:44 | 55.93645 | 4.76453 | 38061 ft | 439 kts | 267° |
| 2026-05-06 15:45 | 55.93523 | 4.65574 | 38059 ft | 439 kts | 267° |
| 2026-05-06 15:45 | 55.93376 | 4.54691 | 38062 ft | 439 kts | 267° |
| 2026-05-06 15:46 | 55.93223 | 4.43822 | 38063 ft | 438 kts | 267° |
| 2026-05-06 15:46 | 55.93070 | 4.32945 | 38064 ft | 439 kts | 267° |
| 2026-05-06 15:47 | 55.92910 | 4.22064 | 38063 ft | 439 kts | 267° |
| 2026-05-06 15:47 | 55.92728 | 4.11176 | 38066 ft | 439 kts | 267° |
| 2026-05-06 15:48 | 55.92540 | 4.00283 | 38069 ft | 440 kts | 267° |
| 2026-05-06 15:48 | 55.92341 | 3.89369 | 38076 ft | 440 kts | 266° |
| 2026-05-06 15:49 | 55.92134 | 3.78457 | 38081 ft | 441 kts | 266° |
| 2026-05-06 15:49 | 55.91918 | 3.67536 | 38085 ft | 441 kts | 266° |
| 2026-05-06 15:50 | 55.91687 | 3.56617 | 38088 ft | 441 kts | 266° |
| 2026-05-06 15:50 | 55.91041 | 3.45789 | 38086 ft | 439 kts | 257° |
| 2026-05-06 15:51 | 55.89746 | 3.35211 | 38083 ft | 439 kts | 257° |
| 2026-05-06 15:51 | 55.88442 | 3.24573 | 38083 ft | 439 kts | 257° |
| 2026-05-06 15:52 | 55.87140 | 3.13945 | 38080 ft | 439 kts | 257° |
| 2026-05-06 15:52 | 55.85816 | 3.03320 | 38077 ft | 439 kts | 257° |
| 2026-05-06 15:53 | 55.84479 | 2.92719 | 38078 ft | 439 kts | 257° |
| 2026-05-06 15:53 | 55.83137 | 2.82107 | 38077 ft | 439 kts | 257° |
| 2026-05-06 15:54 | 55.81788 | 2.71504 | 38075 ft | 439 kts | 257° |
| 2026-05-06 15:54 | 55.80424 | 2.60914 | 38083 ft | 440 kts | 257° |
| 2026-05-06 15:55 | 55.79053 | 2.50324 | 38077 ft | 440 kts | 257° |
| 2026-05-06 15:55 | 55.77679 | 2.39737 | 38075 ft | 440 kts | 257° |
| 2026-05-06 15:56 | 55.76294 | 2.29141 | 38076 ft | 440 kts | 257° |
| 2026-05-06 15:56 | 55.74901 | 2.18562 | 38077 ft | 440 kts | 257° |
| 2026-05-06 15:57 | 55.73493 | 2.07991 | 38078 ft | 440 kts | 256° |
| 2026-05-06 15:57 | 55.72072 | 1.97420 | 38072 ft | 441 kts | 256° |
| 2026-05-06 15:58 | 55.70643 | 1.86841 | 38078 ft | 441 kts | 256° |
| 2026-05-06 15:58 | 55.69204 | 1.76275 | 38078 ft | 441 kts | 256° |
| 2026-05-06 15:59 | 55.67759 | 1.65716 | 38080 ft | 441 kts | 256° |
| 2026-05-06 15:59 | 55.66307 | 1.55155 | 38082 ft | 441 kts | 256° |
| 2026-05-06 16:00 | 55.64840 | 1.44599 | 38082 ft | 442 kts | 256° |
| 2026-05-06 16:00 | 55.63368 | 1.34030 | 38082 ft | 442 kts | 256° |
| 2026-05-06 16:01 | 55.61876 | 1.23471 | 38083 ft | 442 kts | 256° |
| 2026-05-06 16:01 | 55.60379 | 1.12911 | 38082 ft | 443 kts | 256° |
| 2026-05-06 16:02 | 55.58876 | 1.02373 | 38070 ft | 442 kts | 256° |
| 2026-05-06 16:02 | 55.57617 | 0.93616 | 38062 ft | 442 kts | 256° |
| 2026-05-06 16:03 | 55.56611 | 0.86644 | 37773 ft | 440 kts | 256° |
| 2026-05-06 16:03 | 55.55855 | 0.81438 | 37887 ft | 437 kts | 256° |
| 2026-05-06 16:03 | 55.55099 | 0.76238 | 38048 ft | 438 kts | 256° |
| 2026-05-06 16:03 | 55.54341 | 0.71024 | 38072 ft | 439 kts | 256° |
| 2026-05-06 16:04 | 55.53057 | 0.62266 | 38077 ft | 440 kts | 256° |
| 2026-05-06 16:04 | 55.51520 | 0.51815 | 38072 ft | 440 kts | 256° |
| 2026-05-06 16:05 | 55.49975 | 0.41383 | 38078 ft | 440 kts | 256° |
| 2026-05-06 16:05 | 55.48426 | 0.31005 | 38074 ft | 440 kts | 256° |
| 2026-05-06 16:06 | 55.46859 | 0.20568 | 38072 ft | 440 kts | 256° |
| 2026-05-06 16:06 | 55.45276 | 0.10135 | 38077 ft | 441 kts | 255° |
| 2026-05-06 16:07 | 55.43688 | -0.00294 | 38073 ft | 441 kts | 255° |
| 2026-05-06 16:07 | 55.42096 | -0.10716 | 38076 ft | 441 kts | 256° |
| 2026-05-06 16:08 | 55.40498 | -0.21140 | 38074 ft | 441 kts | 255° |
| 2026-05-06 16:08 | 55.38884 | -0.31556 | 38076 ft | 441 kts | 255° |
| 2026-05-06 16:09 | 55.37258 | -0.41970 | 38076 ft | 442 kts | 255° |
| 2026-05-06 16:09 | 55.35620 | -0.52373 | 38077 ft | 442 kts | 255° |
| 2026-05-06 16:10 | 55.33972 | -0.62767 | 38079 ft | 441 kts | 255° |
| 2026-05-06 16:10 | 55.32321 | -0.73149 | 38077 ft | 442 kts | 255° |
| 2026-05-06 16:11 | 55.30664 | -0.83545 | 38074 ft | 442 kts | 255° |
| 2026-05-06 16:11 | 55.28994 | -0.93925 | 38074 ft | 442 kts | 255° |
| 2026-05-06 16:12 | 55.27316 | -1.04303 | 38076 ft | 442 kts | 255° |
| 2026-05-06 16:12 | 55.25621 | -1.14680 | 38077 ft | 442 kts | 255° |
| 2026-05-06 16:13 | 55.23918 | -1.25044 | 37992 ft | 444 kts | 255° |
| 2026-05-06 16:13 | 55.23057 | -1.30275 | 37205 ft | 448 kts | 255° |
| 2026-05-06 16:13 | 55.22199 | -1.35490 | 36632 ft | 444 kts | 255° |
| 2026-05-06 16:14 | 55.21354 | -1.40597 | 35986 ft | 441 kts | 255° |
| 2026-05-06 16:14 | 55.20487 | -1.45816 | 35281 ft | 441 kts | 255° |
| 2026-05-06 16:14 | 55.19629 | -1.50956 | 34577 ft | 440 kts | 255° |
| 2026-05-06 16:14 | 55.18779 | -1.56031 | 33842 ft | 440 kts | 255° |
| 2026-05-06 16:15 | 55.17917 | -1.61167 | 32956 ft | 440 kts | 255° |
| 2026-05-06 16:15 | 55.17052 | -1.66312 | 32035 ft | 442 kts | 255° |
| 2026-05-06 16:15 | 55.16179 | -1.71483 | 31093 ft | 444 kts | 255° |
| 2026-05-06 16:15 | 55.15302 | -1.76669 | 30153 ft | 446 kts | 255° |
| 2026-05-06 16:16 | 55.14418 | -1.81881 | 29000 ft | 448 kts | 255° |
| 2026-05-06 16:16 | 55.13552 | -1.87129 | 27829 ft | 450 kts | 258° |
| 2026-05-06 16:16 | 55.13206 | -1.92543 | 26687 ft | 450 kts | 272° |
| 2026-05-06 16:16 | 55.13662 | -1.97935 | 25761 ft | 447 kts | 286° |
| 2026-05-06 16:17 | 55.14850 | -2.02907 | 24974 ft | 443 kts | 298° |
| 2026-05-06 16:17 | 55.16372 | -2.07558 | 24154 ft | 439 kts | 299° |
| 2026-05-06 16:17 | 55.17910 | -2.12143 | 23301 ft | 435 kts | 302° |
| 2026-05-06 16:17 | 55.19649 | -2.16435 | 22418 ft | 431 kts | 305° |
| 2026-05-06 16:18 | 55.21431 | -2.20683 | 21098 ft | 437 kts | 305° |
| 2026-05-06 16:18 | 55.23237 | -2.24972 | 20155 ft | 436 kts | 305° |
| 2026-05-06 16:18 | 55.25030 | -2.29225 | 19330 ft | 432 kts | 305° |
| 2026-05-06 16:18 | 55.26809 | -2.33436 | 18575 ft | 427 kts | 305° |
| 2026-05-06 16:19 | 55.28569 | -2.37599 | 17780 ft | 423 kts | 305° |
| 2026-05-06 16:19 | 55.30313 | -2.41729 | 16965 ft | 419 kts | 305° |
| 2026-05-06 16:19 | 55.32034 | -2.45826 | 16287 ft | 416 kts | 305° |
| 2026-05-06 16:19 | 55.33751 | -2.49927 | 16057 ft | 417 kts | 305° |
| 2026-05-06 16:20 | 55.35466 | -2.54027 | 16030 ft | 417 kts | 305° |
| 2026-05-06 16:20 | 55.37183 | -2.58137 | 16044 ft | 417 kts | 305° |
| 2026-05-06 16:20 | 55.38900 | -2.62249 | 16043 ft | 417 kts | 305° |
| 2026-05-06 16:20 | 55.40605 | -2.66337 | 15632 ft | 411 kts | 305° |
| 2026-05-06 16:21 | 55.42292 | -2.70393 | 14859 ft | 408 kts | 305° |
| 2026-05-06 16:21 | 55.43959 | -2.74417 | 14131 ft | 405 kts | 305° |
| 2026-05-06 16:21 | 55.45608 | -2.78407 | 13356 ft | 401 kts | 305° |
| 2026-05-06 16:21 | 55.47240 | -2.82373 | 12550 ft | 398 kts | 305° |
| 2026-05-06 16:22 | 55.48854 | -2.86310 | 11760 ft | 395 kts | 305° |
| 2026-05-06 16:22 | 55.50453 | -2.90225 | 11005 ft | 391 kts | 305° |
| 2026-05-06 16:22 | 55.52023 | -2.94075 | 10624 ft | 379 kts | 305° |
| 2026-05-06 16:22 | 55.53526 | -2.97761 | 10481 ft | 361 kts | 305° |
| 2026-05-06 16:23 | 55.54943 | -3.01239 | 10324 ft | 334 kts | 304° |
| 2026-05-06 16:23 | 55.56246 | -3.04430 | 10211 ft | 307 kts | 304° |
| 2026-05-06 16:23 | 55.57450 | -3.07367 | 10032 ft | 285 kts | 305° |
| 2026-05-06 16:23 | 55.58594 | -3.10153 | 9527 ft | 276 kts | 305° |
| 2026-05-06 16:24 | 55.59715 | -3.12882 | 8888 ft | 272 kts | 305° |
| 2026-05-06 16:24 | 55.60825 | -3.15596 | 8429 ft | 272 kts | 304° |
| 2026-05-06 16:24 | 55.61925 | -3.18290 | 8043 ft | 269 kts | 304° |
| 2026-05-06 16:24 | 55.63018 | -3.20966 | 7659 ft | 267 kts | 305° |
| 2026-05-06 16:25 | 55.64096 | -3.23613 | 7291 ft | 265 kts | 305° |
| 2026-05-06 16:25 | 55.65176 | -3.26267 | 6923 ft | 264 kts | 304° |
| 2026-05-06 16:25 | 55.66242 | -3.28891 | 6524 ft | 262 kts | 304° |
| 2026-05-06 16:25 | 55.67302 | -3.31505 | 6136 ft | 261 kts | 304° |
| 2026-05-06 16:26 | 55.68353 | -3.34112 | 5999 ft | 260 kts | 304° |
| 2026-05-06 16:26 | 55.69403 | -3.36732 | 6005 ft | 262 kts | 304° |
| 2026-05-06 16:26 | 55.70455 | -3.39353 | 6002 ft | 254 kts | 304° |
| 2026-05-06 16:26 | 55.71445 | -3.41816 | 6003 ft | 237 kts | 304° |
| 2026-05-06 16:27 | 55.72389 | -3.44162 | 5876 ft | 231 kts | 304° |
| 2026-05-06 16:27 | 55.73319 | -3.46481 | 5509 ft | 230 kts | 304° |
| 2026-05-06 16:27 | 55.74247 | -3.48801 | 5133 ft | 231 kts | 304° |
| 2026-05-06 16:27 | 55.75163 | -3.51101 | 4780 ft | 231 kts | 304° |
| 2026-05-06 16:28 | 55.76093 | -3.53445 | 4402 ft | 232 kts | 304° |
| 2026-05-06 16:28 | 55.77020 | -3.55797 | 4063 ft | 232 kts | 304° |
| 2026-05-06 16:28 | 55.77915 | -3.58089 | 4003 ft | 219 kts | 304° |
| 2026-05-06 16:28 | 55.78772 | -3.60281 | 3982 ft | 214 kts | 304° |
| 2026-05-06 16:29 | 55.79615 | -3.62442 | 3747 ft | 213 kts | 304° |
| 2026-05-06 16:29 | 55.80521 | -3.64521 | 3485 ft | 213 kts | 321° |
| 2026-05-06 16:29 | 55.81794 | -3.65694 | 3356 ft | 204 kts | 346° |
| 2026-05-06 16:29 | 55.83164 | -3.65986 | 3227 ft | 195 kts | 7° |
| 2026-05-06 16:30 | 55.84460 | -3.65473 | 3104 ft | 188 kts | 26° |
| 2026-05-06 16:30 | 55.85216 | -3.64750 | 3048 ft | 185 kts | 38° |
| 2026-05-06 16:30 | 55.86359 | -3.62581 | 2998 ft | 174 kts | 61° |
| 2026-05-06 16:30 | 55.86971 | -3.60792 | 2965 ft | 165 kts | 60° |
| 2026-05-06 16:31 | 55.87565 | -3.59058 | 2794 ft | 164 kts | 61° |
| 2026-05-06 16:31 | 55.88158 | -3.57328 | 2574 ft | 164 kts | 61° |
| 2026-05-06 16:31 | 55.88743 | -3.55617 | 2373 ft | 160 kts | 60° |
| 2026-05-06 16:31 | 55.89316 | -3.53941 | 2153 ft | 157 kts | 61° |
| 2026-05-06 16:32 | 55.89880 | -3.52290 | 1934 ft | 155 kts | 61° |
| 2026-05-06 16:32 | 55.90440 | -3.50650 | 1716 ft | 155 kts | 61° |
| 2026-05-06 16:32 | 55.90996 | -3.49018 | 1493 ft | 154 kts | 62° |
| 2026-05-06 16:32 | 55.91551 | -3.47391 | 1282 ft | 153 kts | 62° |
| 2026-05-06 16:33 | 55.92095 | -3.45795 | 1059 ft | 144 kts | 62° |
| 2026-05-06 16:33 | 55.92596 | -3.44324 | 869 ft | 135 kts | 60° |
| 2026-05-06 16:33 | 55.93078 | -3.42907 | 695 ft | 133 kts | 60° |
| 2026-05-06 16:34 | 55.94011 | -3.40160 | 354 ft | 127 kts | 59° |
| 2026-05-06 16:34 | 55.94468 | -3.38814 | 195 ft | 127 kts | 60° |
| 2026-05-06 16:34 | 55.94897 | -3.37545 | 113 ft | 102 kts | 57° |
| 2026-05-06 16:34 | 55.95175 | -3.36733 | 114 ft | 50 kts | 59° |
| 2026-05-06 16:35 | 55.95257 | -3.36458 | 111 ft | 16 kts | 89° |
| 2026-05-06 16:35 | 55.95194 | -3.36352 | 114 ft | 4 kts | 149° |
| 2026-05-06 16:35 | 55.95177 | -3.36334 | 114 ft | 2 kts | 149° |
| 2026-05-06 16:35 | 55.95172 | -3.36329 | 113 ft | 0 kts | 149° |
| 2026-05-06 16:36 | 55.95128 | -3.36319 | 116 ft | 11 kts | 200° |
| 2026-05-06 16:36 | 55.95077 | -3.36399 | 116 ft | 9 kts | 187° |
| 2026-05-06 16:36 | 55.95030 | -3.36357 | 114 ft | 6 kts | 145° |
| 2026-05-06 16:36 | 55.95002 | -3.36327 | 114 ft | 3 kts | 149° |
| 2026-05-06 16:37 | 55.94988 | -3.36312 | 112 ft | 2 kts | 148° |
| 2026-05-06 16:37 | 55.94980 | -3.36303 | 116 ft | 1 kts | 148° |
| 2026-05-06 16:37 | 55.94971 | -3.36293 | 116 ft | 1 kts | 148° |
| 2026-05-06 16:37 | 55.94968 | -3.36289 | 112 ft | 1 kts | 148° |
| 2026-05-06 16:38 | 55.94960 | -3.36281 | 113 ft | 1 kts | 149° |